Time;durP1;ratioP1;P1;durP2;ratioP2;P2;SDS_P1;SDS_P2;PMS_P1;PMS_P2;Temp;Humidity;BMP_temperature;BMP_pressure;BME280_temperature;BME280_humidity;BME280_pressure;Samples;Min_cycle;Max_cycle;Signal;HPM_P1;HPM_P2
2022/05/14 00:00:25;;;;;;;5.60;2.00;;;15.80;85.10;;;;;;6272239;22;20148;-91
2022/05/14 00:02:55;;;;;;;6.73;1.80;;;15.80;86.10;;;;;;6268349;22;20152;-95
2022/05/14 00:05:23;;;;;;;6.07;1.70;;;15.60;86.40;;;;;;6249219;23;20259;-95
2022/05/14 00:07:51;;;;;;;6.20;1.50;;;15.60;86.90;;;;;;6247121;23;20208;-96
2022/05/14 00:10:21;;;;;;;6.10;1.97;;;15.60;87.30;;;;;;6247714;23;20163;-95
2022/05/14 00:13:04;;;;;;;6.17;1.40;;;15.60;87.20;;;;;;6249773;23;20136;-96
2022/05/14 00:15:38;;;;;;;4.93;1.97;;;15.60;87.20;;;;;;6252157;23;20146;-96
2022/05/14 00:18:06;;;;;;;4.57;1.50;;;15.80;86.90;;;;;;6249357;23;20153;-96
2022/05/14 00:20:33;;;;;;;7.23;1.70;;;15.70;86.60;;;;;;6251727;23;20185;-96
2022/05/14 00:23:00;;;;;;;6.00;1.63;;;15.70;86.80;;;;;;6251676;23;20149;-96
2022/05/14 00:25:26;;;;;;;6.43;1.60;;;15.60;87.20;;;;;;6248857;23;20617;-96
2022/05/14 00:27:53;;;;;;;5.43;1.57;;;15.60;87.40;;;;;;6249035;23;20480;-96
2022/05/14 00:30:23;;;;;;;5.60;1.83;;;15.60;87.50;;;;;;6252381;23;20222;-96
2022/05/14 00:32:51;;;;;;;5.80;1.70;;;15.60;87.70;;;;;;6250123;23;20175;-96
2022/05/14 00:35:17;;;;;;;7.33;1.53;;;15.70;87.80;;;;;;6223464;23;20185;-95
2022/05/14 00:37:43;;;;;;;7.77;1.70;;;15.60;88.00;;;;;;6249128;23;20174;-96
2022/05/14 00:40:33;;;;;;;5.63;1.90;;;15.70;88.50;;;;;;6248543;23;20150;-94
2022/05/14 00:42:59;;;;;;;6.93;1.60;;;15.70;87.90;;;;;;6245886;23;20153;-94
2022/05/14 00:45:26;;;;;;;5.80;1.80;;;15.40;89.10;;;;;;6247764;23;20168;-92
2022/05/14 00:47:55;;;;;;;7.27;2.00;;;15.30;89.90;;;;;;6249477;23;20153;-96
2022/05/14 00:50:32;;;;;;;6.00;1.60;;;15.10;90.50;;;;;;6248951;23;20143;-96
2022/05/14 00:53:27;;;;;;;6.53;1.67;;;15.20;90.30;;;;;;6247785;23;20621;-93
2022/05/14 00:55:57;;;;;;;3.20;1.53;;;15.20;90.30;;;;;;6247847;23;20153;-95
2022/05/14 00:58:48;;;;;;;11.40;2.13;;;15.20;90.40;;;;;;6248140;23;20153;-95
2022/05/14 01:01:14;;;;;;;4.10;1.57;;;15.30;90.40;;;;;;6248236;23;20149;-93
2022/05/14 01:03:40;;;;;;;9.00;2.20;;;15.20;90.60;;;;;;6249203;23;20704;-95
2022/05/14 01:06:09;;;;;;;8.10;1.83;;;15.10;90.90;;;;;;6248899;23;20192;-93
2022/05/14 01:08:36;;;;;;;10.63;2.43;;;15.10;91.10;;;;;;6247874;23;20175;-96
2022/05/14 01:11:03;;;;;;;6.30;1.80;;;14.90;91.50;;;;;;6247953;23;20152;-95
2022/05/14 01:13:28;;;;;;;6.43;1.87;;;14.80;91.80;;;;;;6249265;23;20153;-96
2022/05/14 01:16:00;;;;;;;3.63;1.83;;;14.80;92.10;;;;;;6224220;23;20184;-94
2022/05/14 01:18:30;;;;;;;6.30;1.50;;;14.80;92.00;;;;;;6248983;23;20498;-95
2022/05/14 01:21:22;;;;;;;8.60;2.30;;;15.00;91.90;;;;;;6249171;23;20148;-93
2022/05/14 01:27:02;;;;;;;5.50;1.40;;;14.80;92.60;;;;;;6252368;23;20654;-91
2022/05/14 01:29:28;;;;;;;4.07;1.50;;;14.60;92.90;;;;;;6258097;23;20154;-90
2022/05/14 01:31:55;;;;;;;6.47;1.93;;;14.60;93.20;;;;;;6258852;23;20144;-92
2022/05/14 01:34:26;;;;;;;8.33;2.20;;;14.70;93.30;;;;;;6257769;23;20140;-92
2022/05/14 01:36:52;;;;;;;7.03;1.73;;;14.80;93.20;;;;;;6226821;23;20163;-92
2022/05/14 01:39:18;;;;;;;6.97;2.07;;;14.70;93.50;;;;;;6253257;23;20226;-93
2022/05/14 01:41:44;;;;;;;7.10;2.03;;;14.80;93.30;;;;;;6260895;23;20165;-89
2022/05/14 01:44:10;;;;;;;4.20;1.77;;;14.40;94.10;;;;;;6262951;23;20153;-91
2022/05/14 01:46:36;;;;;;;10.43;2.67;;;14.30;94.80;;;;;;6255426;23;20191;-91
2022/05/14 01:49:02;;;;;;;8.17;2.00;;;14.20;95.50;;;;;;6246916;23;20144;-90
2022/05/14 01:51:29;;;;;;;5.47;1.90;;;14.20;95.50;;;;;;6246110;23;20250;-90
2022/05/14 01:53:55;;;;;;;8.10;2.50;;;14.30;95.50;;;;;;6245175;23;20140;-92
2022/05/14 01:56:21;;;;;;;8.90;2.37;;;14.30;95.60;;;;;;6245782;23;20580;-91
2022/05/14 01:58:47;;;;;;;4.77;1.90;;;14.30;96.00;;;;;;6245825;23;20143;-91
2022/05/14 02:01:23;;;;;;;5.43;2.07;;;14.40;95.80;;;;;;6246846;23;20371;-89
2022/05/14 02:04:03;;;;;;;7.03;2.30;;;14.40;95.60;;;;;;6245813;23;20151;-90
2022/05/14 02:06:30;;;;;;;4.97;1.80;;;14.40;95.70;;;;;;6245615;23;20187;-91
2022/05/14 02:08:57;;;;;;;5.33;1.87;;;14.40;96.00;;;;;;6246053;23;20155;-89
2022/05/14 02:11:23;;;;;;;22.23;2.97;;;14.40;96.10;;;;;;6245759;23;20147;-91
2022/05/14 02:13:50;;;;;;;7.27;2.10;;;14.30;96.30;;;;;;6245542;23;20150;-90
2022/05/14 02:16:15;;;;;;;7.87;2.20;;;14.30;96.60;;;;;;6245590;23;20201;-90
2022/05/14 02:18:41;;;;;;;7.30;2.03;;;14.20;97.00;;;;;;6245528;23;20501;-91
2022/05/14 02:21:08;;;;;;;6.73;1.90;;;14.20;97.20;;;;;;6246093;23;20148;-89
2022/05/14 02:23:38;;;;;;;6.97;2.00;;;14.30;97.20;;;;;;6245098;23;20140;-91
2022/05/14 02:26:05;;;;;;;6.60;2.10;;;14.20;97.30;;;;;;6245472;23;20165;-88
2022/05/14 02:28:32;;;;;;;6.83;2.03;;;14.30;97.30;;;;;;6245567;23;20151;-90
2022/05/14 02:30:57;;;;;;;7.10;2.03;;;14.40;97.50;;;;;;6245568;23;20223;-90
2022/05/14 02:33:24;;;;;;;7.77;2.00;;;14.20;97.60;;;;;;6245599;23;20167;-91
2022/05/14 02:35:50;;;;;;;7.57;2.27;;;14.00;98.20;;;;;;6245174;23;20152;-88
2022/05/14 02:38:15;;;;;;;7.23;2.23;;;14.10;98.30;;;;;;6245522;23;20164;-89
2022/05/14 02:40:42;;;;;;;8.10;2.10;;;14.20;98.20;;;;;;6245394;23;20156;-90
2022/05/14 02:43:09;;;;;;;6.37;2.33;;;14.30;98.00;;;;;;6245576;23;20171;-91
2022/05/14 02:45:36;;;;;;;7.50;2.40;;;14.10;98.30;;;;;;6245023;23;20178;-90
2022/05/14 02:48:02;;;;;;;6.47;1.93;;;13.90;99.20;;;;;;6245366;23;20147;-91
2022/05/14 02:50:28;;;;;;;9.17;2.40;;;13.80;99.60;;;;;;6245247;23;20155;-90
2022/05/14 02:52:55;;;;;;;8.43;2.23;;;13.80;99.80;;;;;;6245187;23;20143;-90
2022/05/14 02:55:21;;;;;;;8.80;2.50;;;13.70;99.90;;;;;;6245235;23;20150;-90
2022/05/14 02:57:47;;;;;;;8.50;2.60;;;13.70;99.90;;;;;;6245143;23;20254;-90
2022/05/14 03:00:18;;;;;;;8.77;2.37;;;13.60;99.90;;;;;;6245297;23;20170;-90
2022/05/14 03:02:45;;;;;;;12.07;2.57;;;13.60;99.90;;;;;;6245573;23;20147;-91
2022/05/14 03:05:14;;;;;;;8.33;2.23;;;13.70;99.90;;;;;;6245183;23;20194;-88
2022/05/14 03:07:41;;;;;;;6.50;2.33;;;13.70;99.90;;;;;;6245474;23;20217;-89
2022/05/14 03:10:07;;;;;;;9.60;2.30;;;13.80;99.90;;;;;;6245431;23;20147;-89
2022/05/14 03:12:33;;;;;;;9.40;2.43;;;13.90;99.90;;;;;;6245735;23;20139;-88
2022/05/14 03:15:00;;;;;;;10.50;2.63;;;13.90;99.90;;;;;;6244990;23;20142;-88
2022/05/14 03:17:27;;;;;;;7.57;1.97;;;13.80;99.90;;;;;;6245539;23;20147;-88
2022/05/14 03:19:53;;;;;;;6.17;2.30;;;13.80;99.90;;;;;;6245086;23;20187;-88
2022/05/14 03:22:18;;;;;;;3.80;1.80;;;13.80;99.90;;;;;;6245594;23;20152;-90
2022/05/14 03:24:44;;;;;;;9.50;1.90;;;13.80;99.90;;;;;;6245011;23;20141;-89
2022/05/14 03:27:12;;;;;;;9.63;2.73;;;13.90;99.90;;;;;;6245555;23;20175;-91
2022/05/14 03:29:39;;;;;;;6.67;2.13;;;13.90;99.90;;;;;;6245244;23;20140;-87
2022/05/14 03:32:05;;;;;;;8.23;2.73;;;13.70;99.90;;;;;;6244900;23;20147;-91
2022/05/14 03:34:32;;;;;;;6.33;2.60;;;13.60;99.90;;;;;;6244880;23;20148;-90
2022/05/14 03:36:58;;;;;;;6.63;2.20;;;13.50;99.90;;;;;;6244503;23;20545;-91
2022/05/14 03:39:24;;;;;;;6.87;2.33;;;13.50;99.90;;;;;;6245474;23;20576;-89
2022/05/14 03:41:50;;;;;;;8.73;1.97;;;13.60;99.90;;;;;;6245374;23;20150;-90
2022/05/14 03:44:17;;;;;;;6.57;2.73;;;13.60;99.90;;;;;;6245321;23;20209;-91
2022/05/14 03:46:43;;;;;;;7.13;2.23;;;13.50;99.90;;;;;;6245781;23;20611;-90
2022/05/14 03:49:08;;;;;;;5.77;2.47;;;13.50;99.90;;;;;;6247590;23;20147;-91
2022/05/14 03:51:34;;;;;;;6.00;2.60;;;13.60;99.90;;;;;;6247288;23;20463;-91
2022/05/14 03:54:00;;;;;;;11.67;2.57;;;13.60;99.90;;;;;;6247690;23;20135;-90
2022/05/14 03:56:26;;;;;;;9.57;2.57;;;13.80;99.90;;;;;;6247464;23;20225;-90
2022/05/14 03:58:52;;;;;;;8.00;2.83;;;13.70;99.90;;;;;;6247874;23;20226;-90
2022/05/14 04:01:18;;;;;;;9.63;2.63;;;13.60;99.90;;;;;;6249287;23;20158;-90
2022/05/14 04:03:45;;;;;;;7.13;2.40;;;13.40;99.90;;;;;;6248413;23;20143;-90
2022/05/14 04:06:11;;;;;;;12.23;2.87;;;13.30;99.90;;;;;;6250564;23;20581;-89
2022/05/14 04:08:37;;;;;;;9.57;2.70;;;13.20;99.90;;;;;;6252467;23;20143;-88
2022/05/14 04:11:03;;;;;;;9.73;2.90;;;13.20;99.90;;;;;;6255903;23;20149;-89
2022/05/14 04:13:29;;;;;;;9.43;2.67;;;13.20;99.90;;;;;;6254669;23;20273;-89
2022/05/14 04:15:55;;;;;;;7.30;2.80;;;13.20;99.90;;;;;;6248100;23;20147;-89
2022/05/14 04:18:24;;;;;;;9.93;2.40;;;13.10;99.90;;;;;;6246610;23;20475;-89
2022/05/14 04:20:56;;;;;;;13.33;3.23;;;13.20;99.90;;;;;;6246650;23;20151;-88
2022/05/14 04:23:22;;;;;;;10.13;2.60;;;13.30;99.90;;;;;;6246471;23;20656;-89
2022/05/14 04:25:50;;;;;;;6.57;3.07;;;13.40;99.90;;;;;;6246826;23;20182;-89
2022/05/14 04:28:16;;;;;;;13.97;3.13;;;13.50;99.90;;;;;;6246626;23;20150;-88
2022/05/14 04:30:43;;;;;;;5.93;2.83;;;13.40;99.90;;;;;;6246368;23;20475;-90
2022/05/14 04:33:11;;;;;;;11.47;3.27;;;13.50;99.90;;;;;;6245989;23;20222;-89
2022/05/14 04:35:36;;;;;;;10.37;3.10;;;13.50;99.90;;;;;;6246376;23;20538;-88
2022/05/14 04:38:02;;;;;;;12.10;2.90;;;13.60;99.90;;;;;;6245981;23;20179;-89
2022/05/14 04:40:28;;;;;;;7.90;3.37;;;13.60;99.90;;;;;;6246601;23;20519;-89
2022/05/14 04:42:53;;;;;;;6.60;2.83;;;13.60;99.90;;;;;;6246025;23;20648;-91
2022/05/14 04:45:19;;;;;;;10.77;3.20;;;13.70;99.90;;;;;;6246272;23;20254;-90
2022/05/14 04:47:45;;;;;;;8.03;3.03;;;13.70;99.90;;;;;;6245957;23;20148;-90
2022/05/14 04:50:12;;;;;;;9.87;3.00;;;13.70;99.90;;;;;;6246630;23;20131;-90
2022/05/14 04:52:38;;;;;;;7.27;2.70;;;13.70;99.90;;;;;;6246127;23;20151;-90
2022/05/14 04:55:05;;;;;;;12.93;3.10;;;13.70;99.90;;;;;;6246291;23;20297;-90
2022/05/14 04:57:30;;;;;;;11.10;3.13;;;13.50;99.90;;;;;;6245571;23;20152;-90
2022/05/14 04:59:56;;;;;;;9.10;2.93;;;13.50;99.90;;;;;;6246027;23;20142;-88
2022/05/14 05:05:06;;;;;;;8.03;2.90;;;13.50;99.90;;;;;;6247257;23;20631;-90
2022/05/14 05:07:32;;;;;;;9.07;3.17;;;13.50;99.90;;;;;;6246020;23;20500;-87
2022/05/14 05:09:58;;;;;;;7.43;3.07;;;13.50;99.90;;;;;;6245977;23;20223;-90
2022/05/14 05:12:24;;;;;;;14.10;2.70;;;13.40;99.90;;;;;;6245633;23;20171;-88
2022/05/14 05:14:49;;;;;;;10.97;3.10;;;13.40;99.90;;;;;;6246069;23;20136;-87
2022/05/14 05:17:15;;;;;;;7.43;3.20;;;13.50;99.90;;;;;;6245517;23;20191;-89
2022/05/14 05:19:41;;;;;;;7.90;3.00;;;13.50;99.90;;;;;;6245941;23;20171;-89
2022/05/14 05:22:07;;;;;;;8.10;3.07;;;13.50;99.90;;;;;;6246322;23;20147;-88
2022/05/14 05:24:33;;;;;;;11.90;3.07;;;13.50;99.90;;;;;;6245705;23;20183;-88
2022/05/14 05:26:59;;;;;;;13.27;3.00;;;13.50;99.90;;;;;;6245729;23;20250;-88
2022/05/14 05:29:25;;;;;;;10.53;3.60;;;13.40;99.90;;;;;;6245664;23;20185;-90
2022/05/14 05:31:50;;;;;;;10.63;3.70;;;13.30;99.90;;;;;;6245673;23;20302;-91
2022/05/14 05:34:17;;;;;;;12.80;3.30;;;13.30;99.90;;;;;;6245654;23;20140;-91
2022/05/14 05:36:42;;;;;;;11.80;3.33;;;13.50;99.90;;;;;;6245630;23;20227;-89
2022/05/14 05:39:10;;;;;;;10.57;3.30;;;13.60;99.90;;;;;;6245765;23;20524;-88
2022/05/14 05:41:36;;;;;;;8.87;3.40;;;13.70;99.90;;;;;;6246094;23;20224;-89
2022/05/14 05:44:02;;;;;;;12.80;3.40;;;13.90;99.90;;;;;;6245754;23;20505;-91
2022/05/14 05:46:27;;;;;;;9.10;3.33;;;14.00;99.90;;;;;;6246010;23;20208;-89
2022/05/14 05:48:53;;;;;;;11.63;3.27;;;14.20;99.90;;;;;;6246049;23;20140;-87
2022/05/14 05:51:19;;;;;;;8.77;3.13;;;14.30;99.90;;;;;;6245727;23;20148;-89
2022/05/14 05:56:47;;;;;;;13.93;4.37;;;14.30;99.90;;;;;;6247123;23;20148;-90
2022/05/14 05:59:15;;;;;;;15.53;4.67;;;14.30;99.90;;;;;;6245674;23;20152;-91
2022/05/14 06:01:42;;;;;;;15.20;4.63;;;14.50;99.90;;;;;;6245748;23;20613;-91
2022/05/14 06:04:08;;;;;;;9.30;4.53;;;14.60;99.90;;;;;;6245553;23;20643;-91
2022/05/14 06:06:34;;;;;;;13.73;4.10;;;14.50;99.90;;;;;;6245603;23;20191;-89
2022/05/14 06:09:00;;;;;;;13.60;5.00;;;14.50;99.90;;;;;;6245701;23;20606;-90
2022/05/14 06:11:26;;;;;;;10.80;4.43;;;14.40;99.90;;;;;;6245707;23;20201;-89
2022/05/14 06:13:52;;;;;;;12.07;4.30;;;14.40;99.90;;;;;;6246036;23;20176;-91
2022/05/14 06:16:18;;;;;;;10.67;4.10;;;14.40;99.90;;;;;;6246226;23;20146;-91
2022/05/14 06:18:44;;;;;;;12.30;4.10;;;14.40;99.90;;;;;;6245576;23;20196;-91
2022/05/14 06:21:12;;;;;;;12.87;4.20;;;14.50;99.90;;;;;;6246180;23;20141;-91
2022/05/14 06:23:38;;;;;;;15.43;5.33;;;14.60;99.90;;;;;;6246208;23;20157;-89
2022/05/14 06:26:04;;;;;;;17.20;5.43;;;14.60;99.90;;;;;;6246407;23;20176;-88
2022/05/14 06:28:29;;;;;;;16.23;6.03;;;14.60;99.90;;;;;;6246485;23;20148;-89
2022/05/14 06:30:58;;;;;;;13.77;5.83;;;14.70;99.90;;;;;;6245588;23;20212;-89
2022/05/14 06:33:26;;;;;;;15.67;4.80;;;14.70;99.90;;;;;;6245650;23;20169;-90
2022/05/14 06:35:52;;;;;;;14.37;5.73;;;14.70;99.90;;;;;;6245304;23;20596;-89
2022/05/14 06:38:18;;;;;;;13.03;5.03;;;14.80;99.90;;;;;;6245414;23;20164;-89
2022/05/14 06:40:43;;;;;;;17.20;7.23;;;14.80;99.90;;;;;;6245671;23;20143;-89
2022/05/14 06:43:09;;;;;;;19.77;6.50;;;14.80;99.90;;;;;;6245762;23;20228;-89
2022/05/14 06:45:35;;;;;;;14.10;5.37;;;14.80;99.90;;;;;;6245197;23;20667;-89
2022/05/14 06:48:02;;;;;;;17.43;6.50;;;14.90;99.90;;;;;;6246047;23;20148;-88
2022/05/14 06:50:31;;;;;;;17.87;6.50;;;15.00;99.90;;;;;;6245280;23;20244;-88
2022/05/14 06:53:00;;;;;;;15.27;5.90;;;14.90;99.90;;;;;;6245811;23;20144;-88
2022/05/14 06:55:35;;;;;;;12.87;6.03;;;14.60;99.90;;;;;;6245543;23;20656;-88
2022/05/14 06:58:00;;;;;;;22.53;6.97;;;14.60;99.90;;;;;;6245728;23;20581;-88
2022/05/14 07:00:27;;;;;;;12.43;5.23;;;14.70;99.90;;;;;;6245586;23;20141;-89
2022/05/14 07:31:38;;;;;;;18.67;6.30;;;16.00;99.90;;;;;;6265745;22;20436;-81
2022/05/14 07:34:04;;;;;;;18.67;5.97;;;16.10;99.90;;;;;;6305075;22;20179;-81
2022/05/14 07:36:33;;;;;;;11.13;5.57;;;16.20;99.90;;;;;;6304837;22;20232;-82
2022/05/14 07:39:02;;;;;;;13.33;5.97;;;16.30;99.90;;;;;;6305348;22;20632;-81
2022/05/14 07:41:29;;;;;;;15.67;6.17;;;16.50;99.90;;;;;;6304970;22;20151;-81
2022/05/14 07:43:57;;;;;;;15.40;5.70;;;16.70;99.90;;;;;;6306615;22;20150;-81
2022/05/14 07:46:28;;;;;;;19.40;6.03;;;16.80;99.90;;;;;;6304971;22;20187;-81
2022/05/14 07:48:56;;;;;;;14.80;5.33;;;16.70;99.90;;;;;;6305083;22;20228;-81
2022/05/14 07:51:22;;;;;;;13.33;6.10;;;16.50;99.90;;;;;;6305107;22;20151;-82
2022/05/14 07:53:48;;;;;;;18.70;6.50;;;16.50;99.90;;;;;;6305344;22;20591;-81
2022/05/14 07:56:13;;;;;;;14.07;5.03;;;16.60;99.90;;;;;;6304640;22;20635;-81
2022/05/14 07:58:42;;;;;;;15.80;5.50;;;16.70;99.90;;;;;;6306755;22;20188;-81
2022/05/14 08:01:07;;;;;;;17.07;6.00;;;16.70;99.90;;;;;;6305104;22;20164;-81
2022/05/14 08:03:33;;;;;;;16.87;6.17;;;16.70;99.90;;;;;;6305089;22;20217;-81
2022/05/14 08:05:59;;;;;;;14.03;6.20;;;16.80;99.90;;;;;;6305205;22;20177;-81
2022/05/14 08:08:26;;;;;;;20.70;6.00;;;17.00;99.90;;;;;;6306700;22;20138;-81
2022/05/14 08:10:52;;;;;;;11.63;5.23;;;17.20;99.90;;;;;;6304820;22;20487;-81
2022/05/14 08:13:20;;;;;;;14.83;6.00;;;17.30;99.90;;;;;;6306574;22;20140;-81
2022/05/14 08:15:47;;;;;;;15.00;5.10;;;17.40;99.90;;;;;;6305055;22;20138;-81
2022/05/14 08:18:14;;;;;;;12.10;6.00;;;17.30;99.90;;;;;;6303677;22;20141;-80
2022/05/14 08:20:40;;;;;;;20.10;5.97;;;17.40;99.90;;;;;;6270434;22;20693;-81
2022/05/14 08:25:51;;;;;;;19.00;6.07;;;17.60;99.90;;;;;;6274970;22;20224;-81
2022/05/14 08:28:17;;;;;;;20.10;5.87;;;17.70;99.90;;;;;;6273897;22;20576;-81
2022/05/14 08:30:43;;;;;;;14.23;5.40;;;17.80;99.90;;;;;;6275246;22;20146;-81
2022/05/14 08:33:08;;;;;;;18.30;5.53;;;18.00;99.90;;;;;;6274805;22;20193;-81
2022/05/14 08:44:46;;;;;;;18.60;5.83;;;18.30;98.70;;;;;;6299026;22;20407;-86
2022/05/14 08:47:43;;;;;;;12.10;3.90;;;18.10;99.10;;;;;;6307255;22;20193;-88
2022/05/14 08:50:31;;;;;;;16.53;5.40;;;18.20;99.00;;;;;;6307120;22;20121;-88
2022/05/14 08:53:22;;;;;;;11.67;4.87;;;18.30;98.70;;;;;;6305635;22;20135;-85
2022/05/14 08:56:41;;;;;;;16.17;5.47;;;18.20;98.50;;;;;;6305385;22;20142;-86
2022/05/14 09:00:13;;;;;;;13.57;5.07;;;18.30;98.70;;;;;;6307213;22;20194;-86
2022/05/14 09:03:03;;;;;;;15.10;4.80;;;18.60;97.70;;;;;;6306865;22;20131;-86
2022/05/14 09:06:07;;;;;;;13.73;5.20;;;18.80;97.00;;;;;;6306597;22;20174;-86
2022/05/14 09:08:33;;;;;;;12.63;3.77;;;18.80;97.40;;;;;;6306394;22;20119;-85
2022/05/14 09:11:41;;;;;;;12.27;4.40;;;18.80;96.80;;;;;;6306306;22;20145;-86
2022/05/14 09:15:03;;;;;;;18.07;4.70;;;18.90;96.40;;;;;;6306770;22;20143;-88
2022/05/14 09:18:12;;;;;;;14.40;4.50;;;19.10;96.40;;;;;;6306138;22;20154;-88
2022/05/14 09:21:09;;;;;;;14.07;4.77;;;19.20;96.00;;;;;;6274118;22;20141;-88
2022/05/14 09:24:28;;;;;;;18.80;5.57;;;19.40;95.50;;;;;;6275137;22;20170;-86
2022/05/14 09:27:21;;;;;;;12.37;3.67;;;19.30;95.70;;;;;;6272265;22;20239;-86
2022/05/14 09:30:10;;;;;;;10.00;4.40;;;19.40;96.00;;;;;;6274819;22;20141;-86
2022/05/14 09:33:04;;;;;;;15.60;4.90;;;19.70;95.10;;;;;;6274849;22;20196;-86
2022/05/14 09:36:29;;;;;;;15.57;3.80;;;19.80;94.80;;;;;;6275420;22;20136;-86
2022/05/14 09:39:54;;;;;;;14.30;4.40;;;19.80;94.20;;;;;;6237682;22;20171;-87
2022/05/14 09:42:58;;;;;;;13.70;4.20;;;19.80;94.40;;;;;;6273812;22;20142;-86
2022/05/14 09:45:52;;;;;;;14.23;3.30;;;19.60;94.20;;;;;;6273697;22;20228;-86
2022/05/14 09:48:42;;;;;;;10.67;3.87;;;19.70;93.80;;;;;;6275306;22;20144;-86
2022/05/14 09:51:11;;;;;;;9.70;2.83;;;19.80;93.00;;;;;;6274747;22;20131;-86
2022/05/14 09:56:44;;;;;;;6.90;2.27;;;19.80;92.70;;;;;;6305569;22;20202;-86
2022/05/14 09:59:45;;;;;;;7.37;3.20;;;19.70;91.80;;;;;;6305429;22;20191;-86
2022/05/14 10:02:49;;;;;;;9.30;2.87;;;19.70;92.10;;;;;;6305945;22;20152;-86
2022/05/14 10:06:01;;;;;;;10.93;3.43;;;19.90;92.30;;;;;;6305521;22;20132;-84
2022/05/14 10:09:39;;;;;;;11.37;3.40;;;20.00;92.80;;;;;;6306159;22;20137;-86
2022/05/14 10:12:54;;;;;;;9.23;3.53;;;20.10;92.50;;;;;;6305623;22;20169;-85
2022/05/14 10:15:58;;;;;;;10.07;3.20;;;20.20;92.70;;;;;;6304317;22;20240;-85
2022/05/14 10:19:27;;;;;;;9.80;3.17;;;20.30;92.40;;;;;;6306029;22;20219;-86
2022/05/14 10:22:17;;;;;;;14.77;3.87;;;20.40;91.70;;;;;;6305457;22;20156;-88
2022/05/14 10:28:44;;;;;;;12.70;3.53;;;20.50;91.40;;;;;;6305707;22;20164;-86
2022/05/14 10:32:00;;;;;;;9.90;3.00;;;20.60;91.80;;;;;;6304638;22;20189;-86
2022/05/14 10:34:48;;;;;;;10.10;3.73;;;20.60;91.40;;;;;;6302950;22;20145;-88
2022/05/14 10:37:51;;;;;;;10.30;3.40;;;20.90;91.10;;;;;;6304238;22;20146;-89
2022/05/14 10:40:38;;;;;;;10.27;3.10;;;21.00;91.30;;;;;;6298709;22;20153;-96
2022/05/14 10:43:27;;;;;;;13.30;3.10;;;21.00;91.10;;;;;;6277831;22;20150;-89
2022/05/14 10:47:00;;;;;;;15.90;3.67;;;21.00;91.10;;;;;;6302204;22;20190;-90
2022/05/14 10:49:54;;;;;;;10.90;3.43;;;21.00;90.90;;;;;;6283254;22;20304;-92
2022/05/14 10:52:24;;;;;;;11.33;3.87;;;21.10;90.70;;;;;;6298974;22;20220;-87
2022/05/14 10:54:49;;;;;;;10.37;3.30;;;21.10;90.90;;;;;;6294184;22;20174;-89
2022/05/14 10:57:51;;;;;;;15.43;3.87;;;21.20;90.60;;;;;;6297778;22;20173;-96
2022/05/14 11:00:53;;;;;;;9.60;3.37;;;21.40;90.20;;;;;;6297058;22;20220;-89
2022/05/14 11:03:42;;;;;;;11.70;2.80;;;21.40;90.30;;;;;;6302905;22;20208;-92
2022/05/14 11:06:46;;;;;;;11.50;3.10;;;21.60;90.30;;;;;;6300009;22;20214;-94
2022/05/14 11:09:37;;;;;;;9.37;3.67;;;21.70;90.60;;;;;;6303149;22;20181;-96
2022/05/14 11:12:26;;;;;;;10.93;3.43;;;21.70;89.40;;;;;;6302795;22;20160;-89
2022/05/14 11:15:27;;;;;;;10.43;3.23;;;21.80;90.00;;;;;;6303767;22;20200;-91
2022/05/14 11:18:40;;;;;;;8.53;3.60;;;22.20;88.20;;;;;;6304200;22;20139;-93
2022/05/14 11:23:58;;;;;;;12.80;3.70;;;24.00;84.50;;;;;;6298330;22;20244;-88
2022/05/14 11:27:14;;;;;;;9.90;2.90;;;25.10;80.70;;;;;;6304492;22;20203;-86
2022/05/14 11:30:21;;;;;;;12.27;2.90;;;26.50;77.60;;;;;;6302666;22;20141;-92
2022/05/14 11:33:05;;;;;;;7.70;3.00;;;28.00;74.00;;;;;;6302892;22;20150;-90
2022/05/14 11:36:18;;;;;;;8.23;2.43;;;29.00;70.70;;;;;;6302831;22;20118;-89
2022/05/14 11:38:49;;;;;;;10.20;3.13;;;29.30;69.40;;;;;;6294022;22;20165;-96
2022/05/14 11:41:55;;;;;;;8.00;2.40;;;30.00;67.00;;;;;;6292207;22;20219;-92
2022/05/14 11:44:31;;;;;;;11.32;3.42;;;31.00;65.10;;;;;;6286629;22;20146;-93
2022/05/14 11:47:03;;;;;;;7.55;3.03;;;31.20;62.90;;;;;;6282902;22;20228;-93
2022/05/14 11:49:38;;;;;;;9.85;2.40;;;31.70;61.10;;;;;;6259571;22;20151;-96
2022/05/14 11:52:08;;;;;;;9.68;2.13;;;32.00;61.30;;;;;;6286143;22;20154;-96
2022/05/14 11:54:53;;;;;;;9.63;2.72;;;32.80;61.20;;;;;;6287281;22;20146;-96
2022/05/14 11:57:34;;;;;;;8.95;2.50;;;33.30;60.00;;;;;;6283835;22;20196;-96
2022/05/14 12:00:16;;;;;;;10.25;3.20;;;34.00;58.50;;;;;;6285978;22;20139;-96
2022/05/14 12:02:57;;;;;;;10.13;2.70;;;34.40;57.50;;;;;;6281843;22;20553;-96
2022/05/14 12:05:34;;;;;;;7.07;2.83;;;34.50;56.80;;;;;;6285031;22;20169;-96
2022/05/14 12:08:06;;;;;;;7.80;2.30;;;34.00;57.10;;;;;;6285739;22;20209;-96
2022/05/14 12:10:52;;;;;;;6.57;2.58;;;34.40;57.30;;;;;;6288377;22;20142;-96
2022/05/14 12:13:36;;;;;;;8.07;2.53;;;35.30;56.00;;;;;;6284988;22;20148;-96
2022/05/14 12:16:04;;;;;;;8.55;2.45;;;36.20;54.60;;;;;;6286585;22;20143;-95
2022/05/14 12:18:32;;;;;;;8.10;2.47;;;36.20;54.10;;;;;;6283135;22;20167;-96
2022/05/14 12:21:00;;;;;;;7.28;2.40;;;36.30;54.80;;;;;;6283576;22;20166;-95
2022/05/14 12:23:46;;;;;;;5.90;2.47;;;36.90;52.70;;;;;;6280326;22;20239;-96
2022/05/14 12:26:21;;;;;;;7.05;2.65;;;37.70;52.40;;;;;;6291075;22;20182;-96
2022/05/14 12:28:50;;;;;;;9.00;2.67;;;37.40;52.40;;;;;;6288844;22;20229;-96
2022/05/14 12:34:07;;;;;;;6.30;2.22;;;36.80;52.20;;;;;;6294365;22;20150;-96
2022/05/14 12:36:34;;;;;;;7.35;2.20;;;36.90;52.50;;;;;;6266391;22;20178;-95
2022/05/14 12:39:03;;;;;;;9.45;2.47;;;37.40;52.00;;;;;;6285232;22;20556;-95
2022/05/14 12:41:41;;;;;;;7.00;2.88;;;38.00;50.90;;;;;;6282020;22;20135;-95
2022/05/14 12:44:15;;;;;;;11.30;3.22;;;38.10;50.60;;;;;;6282825;22;20165;-95
2022/05/14 12:46:48;;;;;;;7.63;2.35;;;38.10;50.60;;;;;;6279062;22;20146;-96
2022/05/14 12:49:20;;;;;;;8.38;2.78;;;37.70;51.80;;;;;;6279148;22;20583;-94
2022/05/14 12:51:52;;;;;;;7.75;2.47;;;38.10;50.70;;;;;;6277749;22;20151;-95
2022/05/14 12:54:20;;;;;;;6.15;2.67;;;38.40;49.80;;;;;;6280185;22;20143;-96
2022/05/14 12:56:46;;;;;;;4.50;1.98;;;38.10;50.70;;;;;;6253636;22;20178;-95
2022/05/14 12:59:11;;;;;;;7.03;2.50;;;37.90;50.40;;;;;;6278367;22;20147;-96
2022/05/14 13:01:37;;;;;;;6.88;2.70;;;37.40;49.70;;;;;;6280206;22;20146;-96
2022/05/14 13:04:06;;;;;;;5.70;2.10;;;37.10;49.90;;;;;;6281115;22;20165;-96
2022/05/14 13:06:34;;;;;;;8.35;2.72;;;37.10;50.20;;;;;;6280599;22;20151;-96
2022/05/14 13:09:05;;;;;;;8.40;2.47;;;37.90;49.30;;;;;;6282024;22;20130;-96
2022/05/14 13:11:34;;;;;;;8.00;2.58;;;38.50;48.70;;;;;;6280965;22;20146;-96
2022/05/14 13:14:21;;;;;;;13.18;2.85;;;38.80;49.10;;;;;;6287952;22;20222;-96
2022/05/14 13:16:59;;;;;;;7.53;2.03;;;39.20;48.10;;;;;;6283287;22;20238;-95
2022/05/14 13:19:35;;;;;;;6.32;2.78;;;39.30;48.10;;;;;;6282499;22;20219;-96
2022/05/14 13:22:27;;;;;;;8.15;2.50;;;39.10;48.00;;;;;;6293568;22;20214;-96
2022/05/14 13:24:55;;;;;;;6.93;2.00;;;39.10;47.30;;;;;;6300329;22;20180;-94
2022/05/14 13:27:44;;;;;;;6.65;1.83;;;39.30;47.40;;;;;;6280412;22;20130;-92
2022/05/14 13:30:49;;;;;;;8.38;2.28;;;39.60;47.60;;;;;;6297567;22;20137;-93
2022/05/14 13:37:07;;;;;;;5.72;2.17;;;39.80;47.70;;;;;;6304761;22;20180;-95
2022/05/14 13:37:34;;;;;;;8.27;2.33;;;40.80;47.20;;;;;;6298312;22;20190;-96
2022/05/14 13:40:21;;;;;;;8.02;2.30;;;40.70;47.10;;;;;;6299872;22;20146;-94
2022/05/14 13:43:17;;;;;;;5.03;2.50;;;40.20;46.90;;;;;;6300375;22;20165;-96
2022/05/14 13:45:56;;;;;;;6.07;2.30;;;40.10;46.80;;;;;;6281259;22;20173;-95
2022/05/14 13:49:08;;;;;;;8.23;2.10;;;39.70;46.70;;;;;;6299318;22;20154;-93
2022/05/14 13:51:44;;;;;;;6.65;2.38;;;39.60;46.40;;;;;;6305511;22;20160;-88
2022/05/14 13:58:49;;;;;;;5.53;2.00;;;39.60;46.50;;;;;;6297461;22;20224;-90
2022/05/14 14:01:51;;;;;;;9.30;2.28;;;39.50;46.80;;;;;;6304567;22;20151;-90
2022/05/14 14:04:59;;;;;;;8.70;2.28;;;40.20;46.40;;;;;;6305154;22;20150;-91
2022/05/14 14:07:32;;;;;;;6.38;2.28;;;40.10;46.60;;;;;;6302456;22;20150;-95
2022/05/14 14:10:27;;;;;;;6.03;1.75;;;40.30;45.80;;;;;;6278317;22;20154;-95
2022/05/14 14:12:56;;;;;;;7.15;1.65;;;40.80;45.50;;;;;;6305101;22;20211;-94
2022/05/14 14:15:23;;;;;;;4.22;1.98;;;41.10;45.70;;;;;;6301451;22;20193;-91
2022/05/14 14:17:49;;;;;;;4.68;2.00;;;41.30;45.00;;;;;;6284867;22;20208;-95
2022/05/14 14:20:18;;;;;;;7.00;1.73;;;41.10;45.30;;;;;;6278360;22;20170;-92
2022/05/14 14:22:45;;;;;;;6.60;2.08;;;41.00;45.30;;;;;;6277774;22;20177;-93
2022/05/14 14:25:12;;;;;;;6.35;2.75;;;40.90;45.70;;;;;;6278721;22;20478;-93
2022/05/14 14:27:39;;;;;;;6.38;2.50;;;41.20;45.40;;;;;;6276014;22;20142;-90
2022/05/14 14:30:07;;;;;;;5.50;2.30;;;41.20;45.80;;;;;;6276164;22;20150;-92